createdAt,value
2019-02-21T00:00:23.797Z,21.80
2019-02-21T00:05:26.564Z,21.70
2019-02-21T00:07:47.219Z,23.53
2019-02-21T00:10:24.069Z,20.50
2019-02-21T00:12:44.513Z,22.57
2019-02-21T00:15:02.009Z,21.80
2019-02-21T00:17:21.868Z,21.60
2019-02-21T00:19:40.473Z,24.20
2019-02-21T00:21:56.470Z,22.60
2019-02-21T00:24:14.674Z,27.07
2019-02-21T00:26:32.561Z,17.93
2019-02-21T00:31:10.585Z,20.33
2019-02-21T00:33:31.141Z,21.00
2019-02-21T00:35:48.725Z,18.37
2019-02-21T00:43:15.230Z,21.37
2019-02-21T00:45:31.791Z,20.60
2019-02-21T00:47:48.192Z,25.53
2019-02-21T00:50:04.668Z,24.93
2019-02-21T00:52:24.204Z,19.33
2019-02-21T00:54:40.463Z,22.87
2019-02-21T00:56:56.713Z,26.53
2019-02-21T00:59:14.061Z,19.70
2019-02-21T01:01:31.185Z,24.73
2019-02-21T01:03:48.062Z,23.27
2019-02-21T01:06:12.343Z,21.97
2019-02-21T01:08:29.178Z,23.10
2019-02-21T01:10:53.430Z,26.03
2019-02-21T01:13:10.163Z,28.80
2019-02-21T01:15:17.014Z,21.63
2019-02-21T01:17:41.430Z,25.30
2019-02-21T01:20:06.858Z,20.57
2019-02-21T01:22:23.826Z,23.57
2019-02-21T01:24:42.358Z,22.73
2019-02-21T01:26:58.416Z,19.47
2019-02-21T01:29:25.237Z,21.50
2019-02-21T01:31:49.147Z,22.83
2019-02-21T01:34:04.994Z,21.50
2019-02-21T01:36:29.224Z,24.33
2019-02-21T01:38:46.118Z,24.93
2019-02-21T01:41:03.489Z,20.17
2019-02-21T01:43:19.836Z,21.53
2019-02-21T01:45:27.921Z,22.77
2019-02-21T01:47:34.412Z,21.07
2019-02-21T01:49:58.315Z,22.57
2019-02-21T01:52:15.389Z,20.57
2019-02-21T01:54:22.215Z,22.07
2019-02-21T01:56:46.249Z,18.80
2019-02-21T01:59:02.722Z,17.30
2019-02-21T02:01:20.277Z,16.77
2019-02-21T02:03:37.718Z,21.30
2019-02-21T02:05:54.963Z,18.17
2019-02-21T02:08:11.914Z,19.03
2019-02-21T02:10:28.930Z,18.37
2019-02-21T02:12:45.675Z,18.93
2019-02-21T02:15:03.902Z,16.70
2019-02-21T02:17:21.990Z,19.87
2019-02-21T02:19:38.404Z,21.70
2019-02-21T02:21:55.051Z,25.73
2019-02-21T02:24:14.650Z,19.30
2019-02-21T02:26:31.278Z,22.60
2019-02-21T02:28:50.285Z,19.80
2019-02-21T02:31:07.493Z,20.13
2019-02-21T02:33:25.853Z,20.70
2019-02-21T02:35:44.310Z,19.50
2019-02-21T02:38:00.596Z,20.03
2019-02-21T02:40:17.926Z,16.70
2019-02-21T02:42:34.409Z,17.57
2019-02-21T02:44:59.257Z,18.60
2019-02-21T02:47:16.984Z,15.73
2019-02-21T02:49:33.348Z,19.23
2019-02-21T02:51:49.610Z,20.07
2019-02-21T02:54:06.257Z,17.00
2019-02-21T02:56:22.745Z,17.77
2019-02-21T02:58:39.418Z,17.70
2019-02-21T03:00:55.597Z,18.33
2019-02-21T03:06:14.216Z,20.07
2019-02-21T03:08:11.388Z,15.17
2019-02-21T03:11:01.968Z,15.73
2019-02-21T03:12:40.053Z,13.87
2019-02-21T03:15:23.649Z,16.03
2019-02-21T03:17:40.627Z,13.37
2019-02-21T03:20:01.687Z,18.27
2019-02-21T03:22:45.294Z,17.07
2019-02-21T03:24:44.641Z,17.47
2019-02-21T03:29:51.658Z,16.23
2019-02-21T03:32:03.239Z,16.20
2019-02-21T03:34:26.306Z,18.47
2019-02-21T03:36:45.477Z,17.57
2019-02-21T03:39:06.109Z,19.30
2019-02-21T03:41:25.890Z,13.77
2019-02-21T03:43:46.168Z,18.00
2019-02-21T03:46:23.060Z,17.53
2019-02-21T03:48:27.791Z,18.97
2019-02-21T03:50:44.479Z,15.27
2019-02-21T03:53:04.291Z,13.93
2019-02-21T03:55:10.724Z,13.83
2019-02-21T03:57:34.582Z,13.47
2019-02-21T03:59:58.194Z,15.30
2019-02-21T04:02:14.848Z,18.53
2019-02-21T04:04:31.271Z,17.60
2019-02-21T04:06:48.780Z,21.47
2019-02-21T04:09:09.315Z,18.07
2019-02-21T04:11:29.378Z,17.60
2019-02-21T04:13:49.269Z,20.50
2019-02-21T04:16:33.331Z,22.93
2019-02-21T04:18:28.897Z,22.57
2019-02-21T04:20:49.702Z,23.27
2019-02-21T04:23:08.178Z,23.33
2019-02-21T04:25:28.634Z,21.80
2019-02-21T04:30:05.830Z,23.80
2019-02-21T04:32:26.479Z,28.20
2019-02-21T04:42:10.216Z,21.47
2019-02-21T04:44:31.630Z,19.10
2019-02-21T04:46:48.684Z,26.00
2019-02-21T04:49:09.369Z,20.83
2019-02-21T04:56:27.049Z,21.27
2019-02-21T04:58:33.640Z,20.60
2019-02-21T05:06:23.351Z,18.63
2019-02-21T05:08:33.154Z,18.57
2019-02-21T05:10:57.072Z,18.60
2019-02-21T05:15:29.013Z,19.90
2019-02-21T05:22:13.334Z,18.07
2019-02-21T05:29:08.944Z,19.93
2019-02-21T05:31:28.519Z,20.07
2019-02-21T05:36:52.223Z,21.37
2019-02-21T05:41:48.039Z,18.57
2019-02-21T05:46:37.857Z,23.57
2019-02-21T05:49:17.151Z,21.27
2019-02-21T05:59:12.679Z,23.00
2019-02-21T06:01:48.494Z,23.57
2019-02-21T06:04:33.484Z,20.80
2019-02-21T06:07:09.860Z,23.87
2019-02-21T06:09:27.760Z,23.27
2019-02-21T06:12:05.040Z,22.40
2019-02-21T06:17:38.245Z,22.83
2019-02-21T06:20:13.252Z,22.30
2019-02-21T06:22:55.736Z,21.57
2019-02-21T06:25:35.659Z,20.53
2019-02-21T06:41:59.968Z,24.03
2019-02-21T06:44:16.374Z,23.40
2019-02-21T06:51:24.501Z,27.63
2019-02-21T06:53:23.471Z,23.23
2019-02-21T06:55:52.645Z,26.20
2019-02-21T06:58:24.806Z,25.83
2019-02-21T07:01:12.255Z,25.43
2019-02-21T07:03:21.808Z,24.10
2019-02-21T07:08:20.888Z,27.40
2019-02-21T07:11:10.196Z,27.97
2019-02-21T07:13:26.002Z,28.17
2019-02-21T07:18:11.886Z,28.50
2019-02-21T07:21:10.232Z,26.80
2019-02-21T07:25:54.859Z,23.60
2019-02-21T07:28:16.831Z,27.53
2019-02-21T07:31:00.681Z,26.40
2019-02-21T07:38:06.663Z,23.10
2019-02-21T07:40:23.376Z,25.83
2019-02-21T07:43:37.291Z,23.33
2019-02-21T07:47:21.538Z,23.67
2019-02-21T07:52:36.009Z,23.23
2019-02-21T07:54:38.188Z,26.87
2019-02-21T07:57:01.482Z,23.67
2019-02-21T08:01:46.608Z,27.60
2019-02-21T08:04:05.440Z,22.50
2019-02-21T08:11:47.212Z,25.03
2019-02-21T08:14:02.471Z,23.73
2019-02-21T08:16:07.651Z,25.60
2019-02-21T08:18:21.067Z,23.60
2019-02-21T08:20:40.413Z,29.67
2019-02-21T08:22:53.687Z,29.63
2019-02-21T08:25:01.785Z,29.13
2019-02-21T08:27:06.591Z,27.57
2019-02-21T08:29:20.683Z,26.13
2019-02-21T08:31:30.034Z,25.80
2019-02-21T08:33:57.973Z,27.60
2019-02-21T08:36:00.509Z,30.77
2019-02-21T08:38:13.138Z,27.97
2019-02-21T08:42:53.170Z,26.70
2019-02-21T08:45:01.964Z,28.60
2019-02-21T08:47:07.187Z,31.87
2019-02-21T08:49:20.326Z,32.83
2019-02-21T08:51:36.005Z,32.77
2019-02-21T08:53:45.886Z,29.00
2019-02-21T08:55:55.904Z,29.43
2019-02-21T08:58:02.011Z,36.07
2019-02-21T09:00:28.228Z,37.57
2019-02-21T09:02:35.967Z,32.23
2019-02-21T09:04:46.905Z,31.60
2019-02-21T09:06:55.230Z,34.07
2019-02-21T09:09:10.838Z,43.17
2019-02-21T09:11:16.335Z,36.87
2019-02-21T09:13:23.610Z,36.73
2019-02-21T09:15:38.400Z,38.70
2019-02-21T09:17:48.443Z,34.37
2019-02-21T09:20:09.503Z,38.03
2019-02-21T09:22:28.467Z,39.67
2019-02-21T09:24:43.255Z,37.47
2019-02-21T09:26:50.366Z,38.50
2019-02-21T09:29:06.370Z,39.37
2019-02-21T09:31:18.084Z,44.57
2019-02-21T09:33:53.686Z,38.77
2019-02-21T09:36:16.210Z,44.73
2019-02-21T09:38:26.655Z,37.67
2019-02-21T09:40:46.957Z,42.90
2019-02-21T09:43:16.019Z,43.03
2019-02-21T09:45:44.791Z,38.63
2019-02-21T09:47:56.329Z,40.40
2019-02-21T09:50:13.326Z,39.50
2019-02-21T09:52:25.578Z,40.73
2019-02-21T09:54:39.967Z,36.43
2019-02-21T09:56:52.935Z,38.30
2019-02-21T09:58:59.657Z,40.30
2019-02-21T10:01:23.329Z,38.20
2019-02-21T10:03:39.064Z,39.97
2019-02-21T10:06:03.169Z,43.20
2019-02-21T10:08:21.990Z,40.23
2019-02-21T10:10:36.562Z,39.80
2019-02-21T10:15:49.175Z,45.67
2019-02-21T10:18:05.253Z,39.93
2019-02-21T10:20:37.515Z,37.53
2019-02-21T10:22:56.468Z,38.63
2019-02-21T10:25:16.869Z,41.57
2019-02-21T10:27:29.163Z,39.73
2019-02-21T10:29:52.784Z,37.40
2019-02-21T10:32:20.657Z,40.60
2019-02-21T10:34:29.659Z,38.27
2019-02-21T10:36:34.469Z,42.23
2019-02-21T10:38:43.322Z,41.43
2019-02-21T10:53:57.827Z,44.30
2019-02-21T10:56:32.340Z,36.77
2019-02-21T10:58:39.711Z,37.33
2019-02-21T11:01:22.559Z,41.63
2019-02-21T11:09:18.491Z,37.97
2019-02-21T11:12:00.544Z,41.97
2019-02-21T11:14:08.004Z,40.00
2019-02-21T11:16:31.852Z,43.90
2019-02-21T11:18:48.390Z,39.93
2019-02-21T11:21:07.115Z,40.77
2019-02-21T11:23:30.754Z,39.83
2019-02-21T11:26:10.118Z,40.57
2019-02-21T11:31:22.801Z,43.03
2019-02-21T11:33:52.880Z,40.03
2019-02-21T11:38:54.931Z,37.20
2019-02-21T12:05:46.374Z,35.67
2019-02-21T12:08:12.796Z,36.70
2019-02-21T12:10:57.827Z,38.67
2019-02-21T12:13:21.730Z,33.67
2019-02-21T12:16:06.753Z,34.40
2019-02-21T12:18:52.808Z,32.67
2019-02-21T12:21:58.439Z,35.27
2019-02-21T12:23:59.612Z,37.70
2019-02-21T12:44:04.998Z,36.30
2019-02-21T12:52:28.159Z,40.07
2019-02-21T12:59:46.475Z,37.93
2019-02-21T13:02:09.662Z,40.87
2019-02-21T13:07:09.764Z,40.07
2019-02-21T13:12:04.573Z,37.83
2019-02-21T13:14:26.488Z,35.53
2019-02-21T13:21:50.055Z,38.70
2019-02-21T13:38:00.155Z,34.77
2019-02-21T13:46:36.485Z,34.90
2019-02-21T13:51:09.778Z,33.77
2019-02-21T13:53:28.009Z,37.77
2019-02-21T13:58:41.649Z,36.77
2019-02-21T14:00:57.822Z,34.13
2019-02-21T14:03:13.373Z,37.00
2019-02-21T14:08:24.529Z,35.50
2019-02-21T14:11:37.328Z,38.57
2019-02-21T14:13:50.727Z,39.63
2019-02-21T14:16:31.267Z,40.97
2019-02-21T14:24:36.739Z,37.37
2019-02-21T14:26:59.540Z,37.13
2019-02-21T14:32:30.460Z,37.57
2019-02-21T14:37:10.016Z,33.53
2019-02-21T14:39:35.942Z,36.63
2019-02-21T14:44:37.737Z,33.93
2019-02-21T14:47:00.151Z,36.27
2019-02-21T14:51:57.259Z,34.47
2019-02-21T14:57:48.510Z,34.17
2019-02-21T15:02:22.417Z,35.80
2019-02-21T15:05:12.345Z,38.47
2019-02-21T15:16:32.432Z,39.07
2019-02-21T15:29:42.772Z,35.17
2019-02-21T15:37:27.431Z,38.17
2019-02-21T15:40:04.793Z,35.90
2019-02-21T15:42:21.600Z,36.67
2019-02-21T15:44:50.846Z,35.27
2019-02-21T15:47:59.435Z,37.73
2019-02-21T15:55:46.406Z,37.80
2019-02-21T15:58:33.529Z,38.20
2019-02-21T16:00:51.754Z,38.90
2019-02-21T16:06:19.339Z,34.97
2019-02-21T16:14:34.034Z,38.07
2019-02-21T16:22:37.601Z,39.83
2019-02-21T16:24:37.922Z,37.43
2019-02-21T16:32:55.458Z,42.07
2019-02-21T16:35:38.627Z,37.10
2019-02-21T16:38:25.112Z,38.00
2019-02-21T16:44:13.767Z,38.07
2019-02-21T16:46:54.023Z,36.57
2019-02-21T16:49:40.252Z,42.67
2019-02-21T16:57:53.175Z,37.43
2019-02-21T17:08:43.660Z,36.67
2019-02-21T17:10:59.838Z,38.30
2019-02-21T17:13:21.806Z,43.10
2019-02-21T17:21:27.164Z,41.30
2019-02-21T17:27:10.199Z,40.37
2019-02-21T17:29:21.764Z,44.63
2019-02-21T17:43:40.775Z,57.67
2019-02-21T17:48:42.746Z,46.80
2019-02-21T17:50:48.439Z,42.20
2019-02-21T17:53:25.866Z,43.17
2019-02-21T17:56:18.619Z,40.73
2019-02-21T17:58:46.988Z,41.00
2019-02-21T18:01:32.969Z,41.13
2019-02-21T18:04:10.140Z,42.53
2019-02-21T18:06:47.138Z,37.37
2019-02-21T18:08:54.890Z,43.57
2019-02-21T18:11:39.021Z,39.47
2019-02-21T18:13:37.974Z,57.73
2019-02-21T18:19:43.330Z,51.47
2019-02-21T18:22:29.440Z,41.60
2019-02-21T18:25:03.739Z,43.47
2019-02-21T18:29:45.590Z,46.83
2019-02-21T18:32:29.637Z,40.60
2019-02-21T18:40:02.394Z,63.57
2019-02-21T18:48:07.535Z,43.53
2019-02-21T18:55:38.252Z,44.67
2019-02-21T19:00:46.242Z,44.03
2019-02-21T19:08:50.202Z,51.13
2019-02-21T19:20:42.868Z,51.90
2019-02-21T19:22:54.014Z,45.90
2019-02-21T19:25:40.668Z,49.67
2019-02-21T19:45:49.741Z,41.80
2019-02-21T19:48:08.912Z,40.40
2019-02-21T19:51:17.255Z,49.43
2019-02-21T19:55:25.173Z,40.97
2019-02-21T19:57:49.180Z,44.47
2019-02-21T20:03:57.081Z,70.57
2019-02-21T20:10:05.317Z,41.83
2019-02-21T20:15:33.798Z,38.73
2019-02-21T20:18:16.488Z,37.33
2019-02-21T20:21:01.731Z,41.13
2019-02-21T20:25:22.603Z,39.07
2019-02-21T20:29:38.240Z,34.57
2019-02-21T20:32:22.554Z,34.70
2019-02-21T20:35:13.499Z,35.00
2019-02-21T20:40:23.806Z,34.90
2019-02-21T20:45:33.140Z,34.07
2019-02-21T20:53:11.423Z,38.23
2019-02-21T20:58:43.919Z,31.37
2019-02-21T21:01:26.307Z,36.00
2019-02-21T21:04:27.840Z,33.67
2019-02-21T21:12:59.486Z,32.20
2019-02-21T21:18:49.833Z,33.53
2019-02-21T21:21:34.538Z,32.87
2019-02-21T21:24:22.342Z,35.27
2019-02-21T21:27:07.913Z,29.97
2019-02-21T21:30:45.268Z,35.20
2019-02-21T21:32:04.971Z,31.63
2019-02-21T21:34:50.982Z,40.40
2019-02-21T21:37:17.128Z,36.23
2019-02-21T21:45:49.328Z,35.57
2019-02-21T21:54:19.640Z,36.27
2019-02-21T21:57:11.046Z,40.97
2019-02-21T22:14:31.024Z,48.73
2019-02-21T22:23:11.352Z,50.70
2019-02-21T22:28:42.385Z,51.13
2019-02-21T22:31:43.125Z,48.83
2019-02-21T22:33:49.662Z,50.20
2019-02-21T22:36:46.421Z,44.17
2019-02-21T22:38:57.951Z,46.70
2019-02-21T22:41:36.250Z,49.17
2019-02-21T22:44:05.229Z,52.80
2019-02-21T22:49:34.648Z,49.13
2019-02-21T22:51:44.332Z,51.93
2019-02-21T22:59:04.718Z,58.07
2019-02-21T23:10:28.622Z,51.73
2019-02-21T23:15:57.506Z,52.90
2019-02-21T23:26:45.777Z,52.57
2019-02-21T23:32:34.826Z,49.57
2019-02-21T23:38:01.335Z,55.20
2019-02-21T23:40:10.941Z,53.67
2019-02-21T23:42:55.755Z,55.77
2019-02-21T23:48:35.288Z,56.00
2019-02-21T23:56:59.772Z,55.00
